Time;durP1;ratioP1;P1;durP2;ratioP2;P2;SDS_P1;SDS_P2;PMS_P1;PMS_P2;Temp;Humidity;BMP_temperature;BMP_pressure;BME280_temperature;BME280_humidity;BME280_pressure;Samples;Min_cycle;Max_cycle;Signal;HPM_P1;HPM_P2
2023/02/19 00:01:30;;;;;;;5.35;3.95;;;;;;;7.29;100.00;99556.34;5052946;28;20461;-89
2023/02/19 00:03:58;;;;;;;4.68;3.28;;;;;;;7.26;100.00;99554.81;5052451;28;20241;-89
2023/02/19 00:06:26;;;;;;;4.55;3.08;;;;;;;7.42;100.00;99574.88;5052029;28;20068;-89
2023/02/19 00:08:54;;;;;;;5.45;3.95;;;;;;;7.45;100.00;99582.69;5050269;28;20116;-88
2023/02/19 00:11:22;;;;;;;4.40;3.78;;;;;;;7.41;100.00;99579.47;5047123;28;20061;-88
2023/02/19 00:13:52;;;;;;;4.88;3.58;;;;;;;7.30;100.00;99570.72;5047023;28;20073;-88
2023/02/19 00:16:20;;;;;;;4.75;3.70;;;;;;;7.51;100.00;99576.69;5050702;28;20049;-88
2023/02/19 00:18:48;;;;;;;5.97;3.90;;;;;;;7.34;100.00;99551.31;5050274;28;20053;-89
2023/02/19 00:21:15;;;;;;;4.57;3.72;;;;;;;7.40;100.00;99556.09;5049313;28;20141;-88
2023/02/19 00:23:42;;;;;;;6.25;4.03;;;;;;;7.42;100.00;99580.28;5042078;28;20128;-88
2023/02/19 00:26:10;;;;;;;6.47;4.25;;;;;;;7.29;100.00;99550.94;5051148;28;20049;-88
2023/02/19 00:28:38;;;;;;;6.00;4.40;;;;;;;7.32;100.00;99564.16;5043067;28;20058;-89
2023/02/19 00:31:08;;;;;;;5.25;3.78;;;;;;;7.27;100.00;99544.81;5054885;28;20072;-88
2023/02/19 00:33:34;;;;;;;;;;;;;;;7.45;100.00;99585.41;5048109;28;20499;-89
2023/02/19 00:36:02;;;;;;;5.50;3.95;;;;;;;7.38;100.00;99574.34;5052403;28;19921;-89
2023/02/19 00:38:29;;;;;;;4.88;3.30;;;;;;;7.47;100.00;99572.59;5054259;28;20059;-89
2023/02/19 00:40:55;;;;;;;5.18;3.92;;;;;;;7.49;100.00;99564.31;5055742;28;20080;-89
2023/02/19 00:43:22;;;;;;;5.72;3.60;;;;;;;7.38;100.00;99547.31;5055030;28;20135;-89
2023/02/19 00:45:49;;;;;;;5.20;3.72;;;;;;;7.43;100.00;99554.97;5055640;28;20087;-89
2023/02/19 00:48:17;;;;;;;4.63;3.47;;;;;;;7.37;100.00;99556.41;5054634;28;20055;-89
2023/02/19 00:50:43;;;;;;;5.13;3.80;;;;;;;7.49;100.00;99559.75;5052918;28;20049;-89
2023/02/19 00:53:10;;;;;;;6.05;4.00;;;;;;;7.29;100.00;99537.44;5054343;28;20128;-89
2023/02/19 00:55:37;;;;;;;4.88;3.53;;;;;;;7.41;100.00;99543.44;5054967;28;20419;-89
2023/02/19 00:58:04;;;;;;;5.57;3.35;;;;;;;7.38;100.00;99541.06;5053263;28;20083;-89
2023/02/19 01:00:32;;;;;;;7.93;3.97;;;;;;;7.57;100.00;99561.66;5054213;28;20485;-89
2023/02/19 01:02:59;;;;;;;5.82;3.88;;;;;;;7.48;100.00;99559.91;5053116;28;20049;-89
2023/02/19 01:05:27;;;;;;;4.72;3.80;;;;;;;7.38;100.00;99525.66;5054918;28;20045;-89
2023/02/19 01:07:53;;;;;;;7.85;4.00;;;;;;;7.39;100.00;99523.81;5054099;28;20052;-89
2023/02/19 01:10:20;;;;;;;7.03;4.15;;;;;;;7.46;100.00;99541.13;5054729;28;20049;-89
2023/02/19 01:12:47;;;;;;;4.60;3.88;;;;;;;7.40;100.00;99515.53;5060432;28;20448;-89
2023/02/19 01:15:13;;;;;;;4.47;3.78;;;;;;;7.50;100.00;99522.72;5048567;28;20051;-89
2023/02/19 01:17:40;;;;;;;6.53;4.10;;;;;;;7.47;100.00;99515.78;5053503;28;20041;-89
2023/02/19 01:20:07;;;;;;;4.45;3.20;;;;;;;7.48;100.00;99538.25;5053778;28;20049;-89
2023/02/19 01:22:35;;;;;;;5.63;3.65;;;;;;;7.34;100.00;99509.91;5047498;28;20675;-89
2023/02/19 01:25:02;;;;;;;5.05;3.70;;;;;;;7.46;100.00;99529.47;5043594;28;20496;-89
2023/02/19 01:27:28;;;;;;;5.53;3.70;;;;;;;7.38;100.00;99531.09;5054372;28;20045;-89
2023/02/19 01:29:55;;;;;;;4.40;3.63;;;;;;;7.38;100.00;99546.47;5053922;28;20049;-88
2023/02/19 01:32:22;;;;;;;5.40;3.95;;;;;;;7.35;100.00;99525.16;5048656;28;20053;-88
2023/02/19 01:34:49;;;;;;;4.90;3.70;;;;;;;7.26;100.00;99503.41;5049503;28;20477;-88
2023/02/19 01:37:16;;;;;;;5.28;4.13;;;;;;;7.36;100.00;99525.00;5046028;28;20053;-88
2023/02/19 01:39:44;;;;;;;5.75;4.28;;;;;;;7.44;100.00;99530.47;5053060;28;20067;-88
2023/02/19 01:42:15;;;;;;;5.47;3.30;;;;;;;7.36;100.00;99522.28;5052625;28;20791;-89
2023/02/19 01:45:23;;;;;;;4.90;4.07;;;;;;;7.26;100.00;99502.59;5053528;28;20053;-88
2023/02/19 01:47:56;;;;;;;5.15;4.03;;;;;;;7.35;100.00;99525.16;4991041;28;20050;-88
2023/02/19 01:50:24;;;;;;;4.68;4.00;;;;;;;7.34;100.00;99509.91;5036033;28;20052;-88
2023/02/19 01:52:52;;;;;;;5.88;4.20;;;;;;;7.40;100.00;99512.00;5048182;28;20052;-88
2023/02/19 01:55:22;;;;;;;5.80;4.47;;;;;;;7.32;100.00;99503.81;5048808;28;20561;-88
2023/02/19 01:57:54;;;;;;;6.18;4.50;;;;;;;7.37;100.00;99512.31;5057214;28;20048;-87
2023/02/19 02:00:23;;;;;;;5.57;4.30;;;;;;;7.37;100.00;99531.25;5043031;28;20052;-88
2023/02/19 02:02:54;;;;;;;5.97;4.35;;;;;;;7.21;100.00;99503.06;5050211;28;20075;-88
2023/02/19 02:05:31;;;;;;;6.22;4.43;;;;;;;7.37;100.00;99517.72;5043378;28;20064;-88
2023/02/19 02:10:45;;;;;;;7.20;4.20;;;;;;;7.34;100.00;99507.22;5056203;28;20064;-87
2023/02/19 02:13:11;;;;;;;5.55;4.07;;;;;;;7.15;100.00;99475.75;5053162;28;20052;-87
2023/02/19 02:15:49;;;;;;;5.55;4.38;;;;;;;7.26;100.00;99494.47;5051147;28;20047;-89
2023/02/19 02:18:29;;;;;;;6.13;4.35;;;;;;;7.21;100.00;99500.34;5056593;28;20072;-88
2023/02/19 02:21:17;;;;;;;6.28;4.50;;;;;;;7.05;100.00;99474.00;5054912;28;20099;-89
2023/02/19 02:24:00;;;;;;;5.13;3.85;;;;;;;7.13;100.00;99486.72;5054566;28;20416;-89
2023/02/19 02:26:44;;;;;;;5.88;4.32;;;;;;;7.09;100.00;99472.69;5053054;28;20053;-88
2023/02/19 02:29:44;;;;;;;5.80;4.18;;;;;;;7.11;100.00;99463.59;5054541;28;20059;-89
2023/02/19 02:32:12;;;;;;;;;;;;;;;7.34;100.00;99481.00;5034221;28;20061;-88
2023/02/19 02:34:45;;;;;;;5.50;3.95;;;;;;;7.15;100.00;99455.00;5038537;28;20284;-89
2023/02/19 02:37:14;;;;;;;6.70;3.80;;;;;;;7.29;100.00;99480.63;5041369;28;20057;-88
2023/02/19 02:39:42;;;;;;;5.57;3.80;;;;;;;7.23;100.00;99482.09;5038643;28;20044;-89
2023/02/19 02:47:43;;;;;;;3.67;2.78;;;;;;;7.15;100.00;99468.53;5049663;28;20056;-88
2023/02/19 02:50:14;;;;;;;4.32;2.65;;;;;;;7.15;100.00;99462.25;5053269;28;20055;-88
2023/02/19 02:55:34;;;;;;;4.20;3.00;;;;;;;7.24;100.00;99480.22;5048565;28;20397;-88
2023/02/19 02:58:02;;;;;;;3.90;2.95;;;;;;;7.19;100.00;99463.63;5052040;28;20106;-89
2023/02/19 03:02:09;;;;;;;4.68;3.00;;;;;;;7.20;100.00;99454.53;5053887;28;20071;-89
2023/02/19 03:03:26;;;;;;;4.88;2.88;;;;;;;7.17;100.00;99468.38;5053423;28;20053;-90
2023/02/19 03:05:58;;;;;;;3.88;2.42;;;;;;;7.05;100.00;99455.06;5053752;28;20045;-90
2023/02/19 03:08:30;;;;;;;3.67;2.38;;;;;;;7.19;100.00;99469.88;5046498;28;20060;-89
2023/02/19 03:19:17;;;;;;;4.18;2.70;;;;;;;7.13;100.00;99448.88;5036738;28;20061;-89
2023/02/19 03:19:31;;;;;;;4.68;2.75;;;;;;;7.14;100.00;99460.56;5053947;28;20118;-89
2023/02/19 03:22:08;;;;;;;3.13;2.55;;;;;;;7.16;100.00;99459.38;5053062;28;20045;-89
2023/02/19 03:27:28;;;;;;;2.58;2.20;;;;;;;7.13;100.00;99453.44;5053313;28;20052;-89
2023/02/19 03:29:59;;;;;;;3.00;2.20;;;;;;;7.16;100.00;99463.94;5053189;28;20049;-88
2023/02/19 03:32:33;;;;;;;3.25;2.45;;;;;;;7.14;100.00;99460.56;5051848;28;20044;-89
2023/02/19 03:35:03;;;;;;;2.13;1.92;;;;;;;7.21;100.00;99473.31;5052977;28;20045;-90
2023/02/19 03:37:35;;;;;;;5.47;2.25;;;;;;;7.19;100.00;99460.94;5052424;28;20045;-89
2023/02/19 03:40:03;;;;;;;3.13;2.10;;;;;;;7.23;100.00;99471.28;5043534;28;20045;-88
2023/02/19 03:42:38;;;;;;;1.73;1.52;;;;;;;7.12;100.00;99447.19;5048395;28;20056;-89
2023/02/19 03:45:18;;;;;;;1.98;1.65;;;;;;;7.21;100.00;99467.91;5053763;28;20055;-89
2023/02/19 03:47:52;;;;;;;1.70;1.27;;;;;;;7.22;100.00;99466.88;5052820;28;20061;-88
2023/02/19 03:50:25;;;;;;;1.67;1.58;;;;;;;7.22;100.00;99468.72;5049708;28;20047;-89
2023/02/19 03:53:00;;;;;;;2.10;1.67;;;;;;;7.24;100.00;99461.31;5051666;28;20049;-88
2023/02/19 03:55:32;;;;;;;1.77;1.35;;;;;;;7.13;100.00;99445.34;5052577;28;20049;-89
2023/02/19 03:58:06;;;;;;;2.05;1.50;;;;;;;7.32;100.00;99483.03;5044272;28;20053;-88
2023/02/19 04:00:40;;;;;;;1.55;1.45;;;;;;;7.31;100.00;99484.03;5038603;28;20053;-89
2023/02/19 04:03:16;;;;;;;1.65;1.23;;;;;;;7.17;100.00;99462.97;5052775;28;20381;-88
2023/02/19 04:05:47;;;;;;;1.40;1.27;;;;;;;7.35;100.00;99509.75;5055100;28;20189;-89
2023/02/19 04:08:17;;;;;;;1.60;1.30;;;;;;;7.19;100.00;99472.59;5055339;28;20481;-88
2023/02/19 04:10:46;;;;;;;1.58;1.20;;;;;;;7.17;100.00;99458.38;5057194;28;20128;-88
2023/02/19 04:13:19;;;;;;;1.85;1.25;;;;;;;7.31;100.00;99491.28;5036422;28;20063;-88
2023/02/19 04:15:48;;;;;;;1.48;1.10;;;;;;;7.25;100.00;99476.53;5055437;28;20048;-88
2023/02/19 04:18:18;;;;;;;1.45;1.35;;;;;;;7.33;100.00;99491.97;5056025;28;20494;-89
2023/02/19 04:20:46;;;;;;;;;;;;;;;7.35;100.00;99501.63;5056518;28;20054;-88
2023/02/19 04:23:14;;;;;;;1.83;1.30;;;;;;;7.13;100.00;99467.81;5055581;28;19929;-88
2023/02/19 04:25:44;;;;;;;1.73;1.50;;;;;;;7.13;100.00;99466.97;5053276;28;20044;-88
2023/02/19 04:28:15;;;;;;;1.40;1.15;;;;;;;7.23;100.00;99495.63;5035363;28;20049;-88
2023/02/19 04:30:42;;;;;;;1.75;1.17;;;;;;;7.26;100.00;99519.66;5054837;28;20045;-88
2023/02/19 04:33:09;;;;;;;1.30;1.00;;;;;;;7.11;100.00;99496.03;5055772;28;20049;-90
2023/02/19 04:35:37;;;;;;;1.30;1.20;;;;;;;7.20;100.00;99519.44;5043494;28;20045;-88
2023/02/19 04:38:04;;;;;;;4.20;1.23;;;;;;;7.18;100.00;99516.88;5049144;28;20064;-88
2023/02/19 04:40:30;;;;;;;3.20;1.33;;;;;;;7.14;100.00;99512.78;5055504;28;20049;-89
2023/02/19 04:42:57;;;;;;;1.50;1.38;;;;;;;7.12;100.00;99511.22;5055771;28;20052;-88
2023/02/19 04:45:24;;;;;;;1.65;1.25;;;;;;;7.19;100.00;99533.94;5050056;28;20047;-89
2023/02/19 04:47:50;;;;;;;3.25;1.20;;;;;;;7.14;100.00;99523.59;5055906;28;20049;-88
2023/02/19 04:50:17;;;;;;;1.88;1.10;;;;;;;6.99;100.00;99504.34;5050656;28;20059;-87
2023/02/19 04:52:45;;;;;;;1.50;1.40;;;;;;;7.13;100.00;99538.09;5053460;28;20053;-88
2023/02/19 04:55:12;;;;;;;3.70;1.25;;;;;;;7.13;100.00;99537.25;5055439;28;20416;-88
2023/02/19 04:57:38;;;;;;;1.83;1.25;;;;;;;7.03;100.00;99524.66;5049652;28;20049;-89
2023/02/19 05:00:07;;;;;;;1.60;1.20;;;;;;;7.02;100.00;99531.06;5054271;28;20077;-90
2023/02/19 05:02:33;;;;;;;1.38;1.10;;;;;;;7.08;100.00;99543.97;5055072;28;20068;-88
2023/02/19 05:05:00;;;;;;;4.13;1.50;;;;;;;7.12;100.00;99547.25;5054148;28;20174;-90
2023/02/19 05:07:27;;;;;;;1.75;1.08;;;;;;;7.04;100.00;99541.72;5046062;28;20059;-89
2023/02/19 05:09:55;;;;;;;1.40;1.13;;;;;;;7.04;100.00;99539.88;5052109;28;20049;-89
2023/02/19 05:12:22;;;;;;;1.30;1.17;;;;;;;7.03;100.00;99529.22;5051999;28;20071;-87
2023/02/19 05:14:49;;;;;;;1.10;0.98;;;;;;;7.02;100.00;99528.38;5043101;28;20049;-90
2023/02/19 05:17:16;;;;;;;1.23;1.13;;;;;;;6.99;100.00;99527.84;5043826;28;20049;-90
2023/02/19 05:19:43;;;;;;;1.52;0.95;;;;;;;6.91;100.00;99505.13;5043933;28;20049;-89
2023/02/19 05:22:09;;;;;;;0.88;0.88;;;;;;;7.04;100.00;99530.91;5054694;28;20059;-89
2023/02/19 05:24:36;;;;;;;1.40;1.30;;;;;;;7.00;100.00;99513.28;5054024;28;20045;-90
2023/02/19 05:27:04;;;;;;;1.27;1.00;;;;;;;6.95;100.00;99512.91;5053590;28;20053;-89
2023/02/19 05:29:31;;;;;;;0.85;0.75;;;;;;;6.95;100.00;99508.34;5042237;28;20053;-88
2023/02/19 05:31:58;;;;;;;1.17;0.98;;;;;;;6.98;100.00;99518.84;5051645;28;20496;-88
2023/02/19 05:34:24;;;;;;;1.73;1.10;;;;;;;7.04;100.00;99530.91;5053687;28;20051;-88
2023/02/19 05:36:51;;;;;;;1.10;1.00;;;;;;;6.96;100.00;99510.06;5053375;28;20053;-88
2023/02/19 05:39:20;;;;;;;2.88;1.10;;;;;;;7.05;100.00;99521.81;5052021;28;20139;-88
2023/02/19 05:41:46;;;;;;;1.17;0.85;;;;;;;7.06;100.00;99529.78;5054301;28;20473;-88
2023/02/19 05:44:14;;;;;;;0.88;0.88;;;;;;;7.00;100.00;99526.81;5052792;28;20049;-85
2023/02/19 05:46:41;;;;;;;0.70;0.70;;;;;;;7.12;100.00;99532.84;5053712;28;20053;-87
2023/02/19 05:49:08;;;;;;;0.80;0.70;;;;;;;7.13;100.00;99553.50;5054737;28;20045;-88
2023/02/19 05:51:34;;;;;;;0.65;0.60;;;;;;;7.08;100.00;99553.94;5053229;28;20056;-88
2023/02/19 05:54:01;;;;;;;2.38;0.65;;;;;;;6.94;100.00;99531.00;5052328;28;20045;-88
2023/02/19 05:56:31;;;;;;;1.20;0.80;;;;;;;6.94;100.00;99532.84;5052780;28;20041;-88
2023/02/19 05:58:59;;;;;;;0.80;0.80;;;;;;;7.00;100.00;99541.19;5049508;28;20416;-87
2023/02/19 06:01:28;;;;;;;0.70;0.70;;;;;;;7.01;100.00;99548.28;5046214;28;20481;-87
2023/02/19 06:03:56;;;;;;;1.00;0.90;;;;;;;6.88;100.00;99515.38;5035283;28;20046;-87
2023/02/19 06:06:23;;;;;;;0.80;0.80;;;;;;;7.00;100.00;99551.13;5049872;28;20045;-87
2023/02/19 06:08:50;;;;;;;0.85;0.70;;;;;;;6.89;100.00;99544.97;5050550;28;20053;-87
2023/02/19 06:11:16;;;;;;;1.88;1.00;;;;;;;7.02;100.00;99563.50;5050268;28;20041;-87
2023/02/19 06:13:43;;;;;;;1.10;1.00;;;;;;;6.99;100.00;99547.59;5050536;28;20049;-87
2023/02/19 06:16:10;;;;;;;0.60;0.60;;;;;;;7.08;100.00;99567.47;5041349;28;20047;-87
2023/02/19 06:18:40;;;;;;;1.00;0.90;;;;;;;7.09;100.00;99567.31;5049694;28;20045;-87
2023/02/19 06:21:10;;;;;;;0.95;0.88;;;;;;;7.00;100.00;99560.13;5042063;28;20132;-87
2023/02/19 06:23:37;;;;;;;0.68;0.60;;;;;;;7.10;100.00;99570.84;5042871;28;20037;-87
2023/02/19 06:26:08;;;;;;;1.05;0.93;;;;;;;7.08;100.00;99562.91;5041018;28;20053;-88
2023/02/19 06:28:35;;;;;;;0.98;0.77;;;;;;;6.91;100.00;99540.25;5039377;28;20045;-87
2023/02/19 06:31:01;;;;;;;0.90;0.77;;;;;;;7.04;100.00;99564.19;5050110;28;20044;-87
2023/02/19 06:33:28;;;;;;;2.95;0.80;;;;;;;7.12;100.00;99573.41;5049321;28;20067;-87
2023/02/19 06:35:58;;;;;;;1.08;1.00;;;;;;;7.09;100.00;99570.00;5046952;28;20045;-87
2023/02/19 06:38:26;;;;;;;0.90;0.90;;;;;;;7.09;100.00;99575.44;5050550;28;20044;-87
2023/02/19 06:40:52;;;;;;;2.38;1.10;;;;;;;7.14;100.00;99585.78;5052143;28;20045;-87
2023/02/19 06:43:19;;;;;;;0.93;0.90;;;;;;;7.12;100.00;99595.03;5046294;28;20049;-86
2023/02/19 06:45:45;;;;;;;1.27;1.08;;;;;;;7.04;100.00;99576.88;5050223;28;20053;-87
2023/02/19 06:48:12;;;;;;;1.35;1.10;;;;;;;7.11;100.00;99588.78;5044443;28;20234;-87
2023/02/19 06:50:39;;;;;;;4.05;1.38;;;;;;;7.06;100.00;99596.50;5043282;28;20041;-87
2023/02/19 06:53:07;;;;;;;0.90;0.90;;;;;;;7.14;100.00;99603.88;5048145;28;20500;-86
2023/02/19 06:55:34;;;;;;;1.35;1.00;;;;;;;7.04;100.00;99585.00;5044865;28;20068;-87
2023/02/19 06:58:01;;;;;;;3.00;1.00;;;;;;;7.18;100.00;99614.22;5049465;28;20497;-87
2023/02/19 07:00:27;;;;;;;2.05;1.30;;;;;;;7.19;100.00;99620.47;5043250;28;20488;-87
2023/02/19 07:02:55;;;;;;;1.70;1.33;;;;;;;7.21;100.00;99619.31;5044122;28;20504;-88
2023/02/19 07:05:22;;;;;;;1.95;1.38;;;;;;;7.27;100.00;99634.06;5043632;28;20040;-87
2023/02/19 07:07:49;;;;;;;1.35;1.13;;;;;;;7.12;100.00;99606.72;5048917;28;20051;-87
2023/02/19 07:10:18;;;;;;;1.98;1.45;;;;;;;7.20;100.00;99623.03;5043447;28;20045;-87
2023/02/19 07:12:44;;;;;;;1.50;1.27;;;;;;;7.12;100.00;99611.25;5049926;28;20048;-87
2023/02/19 07:15:11;;;;;;;1.98;1.10;;;;;;;7.20;100.00;99633.00;5043902;28;20051;-89
2023/02/19 07:17:38;;;;;;;1.42;1.30;;;;;;;7.29;100.00;99645.59;5048172;28;20501;-89
2023/02/19 07:20:05;;;;;;;2.55;1.30;;;;;;;7.24;100.00;99634.38;5051261;28;20112;-88
2023/02/19 07:22:34;;;;;;;1.92;1.52;;;;;;;7.25;100.00;99626.09;5042260;28;20041;-88
2023/02/19 07:25:01;;;;;;;2.55;1.35;;;;;;;7.31;100.00;99648.16;5051977;28;20139;-89
2023/02/19 07:27:29;;;;;;;1.80;1.40;;;;;;;7.26;100.00;99640.50;5049461;28;20063;-89
2023/02/19 07:29:56;;;;;;;2.20;1.40;;;;;;;7.35;100.00;99638.75;5047170;28;20045;-87
2023/02/19 07:32:22;;;;;;;4.35;2.40;;;;;;;7.15;100.00;99613.66;5043579;28;20052;-88
2023/02/19 07:34:49;;;;;;;1.50;1.20;;;;;;;7.19;100.00;99620.47;5050387;28;20048;-88
2023/02/19 07:37:15;;;;;;;1.58;1.13;;;;;;;7.26;100.00;99633.22;5050275;28;20061;-87
2023/02/19 07:39:42;;;;;;;1.45;1.33;;;;;;;7.20;100.00;99614.06;5055187;28;20049;-86
2023/02/19 07:42:09;;;;;;;1.33;1.23;;;;;;;7.19;100.00;99620.47;5050740;28;20049;-87
2023/02/19 07:44:37;;;;;;;1.63;1.38;;;;;;;7.27;100.00;99634.06;5048539;28;20071;-87
2023/02/19 07:47:04;;;;;;;2.50;1.50;;;;;;;7.28;100.00;99610.59;5055787;28;20053;-87
2023/02/19 07:49:31;;;;;;;1.95;1.63;;;;;;;7.23;100.00;99614.59;5054424;28;20053;-87
2023/02/19 07:51:58;;;;;;;2.33;2.00;;;;;;;7.27;100.00;99609.72;5050616;28;20128;-87
2023/02/19 07:54:25;;;;;;;2.10;1.88;;;;;;;7.38;100.00;99630.31;5054275;28;20047;-88
2023/02/19 07:56:51;;;;;;;2.35;1.58;;;;;;;7.39;100.00;99635.56;5049183;28;20566;-86
2023/02/19 07:59:21;;;;;;;2.50;1.83;;;;;;;7.22;100.00;99612.06;5046146;28;20044;-87
2023/02/19 08:04:36;;;;;;;2.83;1.85;;;;;;;7.35;100.00;99619.81;5049709;28;20059;-83
2023/02/19 08:07:06;;;;;;;1.90;1.73;;;;;;;7.32;100.00;99601.19;5047080;28;20065;-85
2023/02/19 08:09:33;;;;;;;2.40;1.80;;;;;;;7.40;100.00;99614.78;5047723;28;20057;-88
2023/02/19 08:14:43;;;;;;;1.52;1.20;;;;;;;7.62;100.00;99640.53;5049994;28;20091;-87
2023/02/19 08:17:12;;;;;;;2.22;1.60;;;;;;;7.51;100.00;99629.94;5044070;28;20060;-87
2023/02/19 08:19:38;;;;;;;1.65;1.50;;;;;;;7.67;100.00;99657.16;5050589;28;20045;-88
2023/02/19 08:22:05;;;;;;;2.58;1.42;;;;;;;7.65;100.00;99656.47;5045933;28;20045;-87
2023/02/19 08:24:32;;;;;;;1.50;1.30;;;;;;;7.68;100.00;99656.16;5052358;28;20484;-87
2023/02/19 08:26:59;;;;;;;1.90;1.60;;;;;;;7.74;100.00;99657.41;5049591;28;20404;-88
2023/02/19 08:29:26;;;;;;;2.63;1.80;;;;;;;7.76;100.00;99644.56;5050645;28;20508;-88
2023/02/19 08:31:52;;;;;;;1.50;1.20;;;;;;;7.68;100.00;99647.16;5051299;28;20049;-87
2023/02/19 08:34:25;;;;;;;3.30;1.88;;;;;;;7.80;100.00;99673.88;5045481;28;20063;-88
2023/02/19 08:36:55;;;;;;;2.58;1.52;;;;;;;7.72;100.00;99660.25;5053250;28;20045;-87
2023/02/19 08:39:24;;;;;;;2.00;1.42;;;;;;;7.77;100.00;99666.06;5047121;28;20481;-88
2023/02/19 08:41:51;;;;;;;2.22;1.60;;;;;;;7.85;100.00;99672.56;5055941;28;20053;-89
2023/02/19 08:44:17;;;;;;;1.90;1.45;;;;;;;7.89;100.00;99674.78;5054243;28;20045;-83
2023/02/19 08:46:44;;;;;;;1.20;1.10;;;;;;;7.91;100.00;99677.34;5052927;28;20047;-83
2023/02/19 08:49:14;;;;;;;1.83;1.42;;;;;;;7.86;100.00;99666.13;5052945;28;20041;-83
2023/02/19 08:51:45;;;;;;;1.40;1.08;;;;;;;7.90;100.00;99686.47;5053176;28;20049;-83
2023/02/19 08:54:12;;;;;;;1.25;1.10;;;;;;;7.87;100.00;99679.50;5050922;28;20044;-81
2023/02/19 08:56:40;;;;;;;2.03;1.15;;;;;;;7.80;100.00;99673.88;5046229;28;20507;-82
2023/02/19 08:59:06;;;;;;;4.63;1.50;;;;;;;7.96;100.00;99684.00;5054138;28;20041;-84
2023/02/19 09:01:35;;;;;;;1.52;1.25;;;;;;;7.96;100.00;99702.97;5054731;28;20052;-86
2023/02/19 09:04:02;;;;;;;1.25;1.13;;;;;;;7.97;100.00;99709.22;5053287;28;20067;-88
2023/02/19 09:06:29;;;;;;;3.22;1.23;;;;;;;8.04;100.00;99721.13;5053420;28;20061;-87
2023/02/19 09:08:57;;;;;;;1.65;1.17;;;;;;;8.08;100.00;99716.25;5051451;28;20268;-87
2023/02/19 09:11:24;;;;;;;2.55;1.30;;;;;;;8.09;100.00;99732.34;5052535;28;20075;-87
2023/02/19 09:13:50;;;;;;;2.25;1.40;;;;;;;8.06;100.00;99719.09;5053073;28;20053;-87
2023/02/19 09:16:17;;;;;;;1.60;1.50;;;;;;;8.11;100.00;99724.94;5053755;28;20052;-89
2023/02/19 09:18:45;;;;;;;2.15;1.27;;;;;;;8.21;100.00;99740.25;5049056;28;20045;-87
2023/02/19 09:21:12;;;;;;;3.22;1.60;;;;;;;8.14;100.00;99734.56;5053594;28;20502;-86
2023/02/19 09:23:39;;;;;;;1.60;1.13;;;;;;;8.12;100.00;99721.19;5053494;28;20128;-86
2023/02/19 09:26:08;;;;;;;2.20;1.33;;;;;;;8.22;100.00;99734.66;5053565;28;20049;-83
2023/02/19 09:28:38;;;;;;;2.83;1.70;;;;;;;8.33;100.00;99747.94;5053706;28;20045;-87
2023/02/19 09:31:05;;;;;;;1.45;1.20;;;;;;;8.30;100.00;99734.72;5053734;28;20056;-88
2023/02/19 09:33:32;;;;;;;2.67;1.45;;;;;;;8.40;100.00;99766.28;5047683;28;20072;-87
2023/02/19 09:35:59;;;;;;;2.45;1.65;;;;;;;8.48;100.00;99756.41;5052524;28;20045;-87
2023/02/19 09:38:26;;;;;;;2.28;1.50;;;;;;;8.50;100.00;99765.22;5051261;28;20044;-87
2023/02/19 09:40:53;;;;;;;1.85;1.40;;;;;;;8.42;100.00;99767.00;5052349;28;20045;-85
2023/02/19 09:43:24;;;;;;;4.95;1.73;;;;;;;8.44;100.00;99751.47;5032361;28;20481;-87
2023/02/19 09:46:01;;;;;;;2.08;1.10;;;;;;;8.40;100.00;99750.91;5033221;28;20055;-86
2023/02/19 09:48:28;;;;;;;2.90;1.50;;;;;;;8.45;100.00;99761.31;5041004;28;20041;-87
2023/02/19 09:50:57;;;;;;;2.42;1.50;;;;;;;8.66;100.00;99761.81;5052079;28;20053;-86
2023/02/19 09:53:27;;;;;;;1.60;1.20;;;;;;;8.64;100.00;99760.25;5046528;28;20075;-86
2023/02/19 09:55:54;;;;;;;2.63;1.40;;;;;;;8.67;100.00;99777.06;5050896;28;20496;-86
2023/02/19 09:58:34;;;;;;;6.18;1.27;;;;;;;8.66;100.00;99767.22;5052489;28;20044;-87
2023/02/19 10:01:03;;;;;;;2.47;1.70;;;;;;;8.68;100.00;99776.03;5053013;28;20053;-86
2023/02/19 10:03:33;;;;;;;2.88;1.48;;;;;;;8.76;100.00;99763.56;5052002;28;20545;-87
2023/02/19 10:06:06;;;;;;;1.70;1.15;;;;;;;8.75;100.00;99778.16;5052723;28;20131;-87
2023/02/19 10:08:37;;;;;;;2.72;1.17;;;;;;;8.78;100.00;99761.56;5043533;28;20049;-86
2023/02/19 10:11:05;;;;;;;2.15;1.23;;;;;;;8.68;100.00;99758.94;5051044;28;20063;-86
2023/02/19 10:13:35;;;;;;;2.42;1.20;;;;;;;8.80;100.00;99778.50;5050373;28;20048;-87
2023/02/19 10:16:05;;;;;;;2.30;1.45;;;;;;;8.79;100.00;99780.38;5052366;28;20485;-86
2023/02/19 10:18:38;;;;;;;2.13;1.15;;;;;;;8.77;100.00;99782.38;5052271;28;20056;-87
2023/02/19 10:21:05;;;;;;;3.55;1.30;;;;;;;8.82;100.00;99796.31;5052737;28;20440;-85
2023/02/19 10:23:32;;;;;;;4.53;1.60;;;;;;;8.89;100.00;99796.53;5033691;28;20136;-85
2023/02/19 10:26:03;;;;;;;4.72;1.35;;;;;;;8.86;100.00;99797.69;5031790;28;20409;-85
2023/02/19 10:28:33;;;;;;;1.73;1.45;;;;;;;8.93;100.00;99810.66;5030611;28;20422;-86
2023/02/19 10:31:02;;;;;;;4.18;1.30;;;;;;;8.89;100.00;99796.53;5047409;28;20037;-85
2023/02/19 10:33:29;;;;;;;2.67;1.30;;;;;;;8.92;100.00;99815.19;5049306;28;20087;-85
2023/02/19 10:35:58;;;;;;;2.05;1.08;;;;;;;8.89;100.00;99795.69;5049852;28;20041;-86
2023/02/19 10:38:28;;;;;;;6.20;1.40;;;;;;;8.99;100.00;99816.28;5050185;28;20476;-86
2023/02/19 10:41:04;;;;;;;4.05;1.15;;;;;;;8.92;100.00;99812.47;5035867;28;20064;-86
2023/02/19 10:43:38;;;;;;;1.52;1.10;;;;;;;9.11;100.00;99824.13;5029635;28;20132;-85
2023/02/19 10:46:08;;;;;;;3.50;1.60;;;;;;;9.10;100.00;99826.00;5028999;28;20049;-86
2023/02/19 10:48:37;;;;;;;1.83;0.98;;;;;;;9.11;100.00;99837.69;5044106;28;20053;-84
2023/02/19 10:51:08;;;;;;;1.80;1.03;;;;;;;8.96;100.00;99802.19;5048535;28;20052;-85
2023/02/19 10:54:03;;;;;;;1.80;1.00;;;;;;;8.94;100.00;99799.63;5041654;28;20059;-85
2023/02/19 10:56:32;;;;;;;2.33;1.33;;;;;;;9.17;100.00;99826.22;5030476;28;20046;-85
2023/02/19 10:59:16;;;;;;;2.20;1.20;;;;;;;9.10;100.00;99798.88;5030527;28;20481;-86
2023/02/19 11:01:54;;;;;;;1.23;1.00;;;;;;;9.27;100.00;99828.81;5029949;28;20498;-87
2023/02/19 11:04:21;;;;;;;1.90;0.98;;;;;;;9.22;100.00;99815.75;5035722;28;20045;-85
2023/02/19 11:06:48;;;;;;;2.30;1.50;;;;;;;9.21;100.00;99812.19;5048710;28;20089;-86
2023/02/19 11:09:26;;;;;;;3.53;1.98;;;;;;;9.19;100.00;99799.78;5050444;28;20049;-86
2023/02/19 11:11:54;;;;;;;4.15;1.55;;;;;;;9.25;100.00;99795.59;5049496;28;20516;-87
2023/02/19 11:14:24;;;;;;;2.38;1.48;;;;;;;9.35;100.00;99799.03;5049775;28;20048;-85
2023/02/19 11:16:54;;;;;;;3.65;1.35;;;;;;;9.28;100.00;99801.53;5049362;28;20085;-86
2023/02/19 11:19:27;;;;;;;;;;;;;;;9.32;100.00;99802.91;5042301;28;20045;-84
2023/02/19 11:21:54;;;;;;;2.13;1.20;;;;;;;9.14;100.00;99784.00;5048606;28;19964;-84
2023/02/19 11:24:51;;;;;;;3.40;1.17;;;;;;;9.26;100.00;99781.84;5049195;28;20291;-86
2023/02/19 11:27:20;;;;;;;2.00;1.25;;;;;;;9.26;100.00;99779.16;5031020;28;20056;-85
2023/02/19 11:29:49;;;;;;;3.85;1.30;;;;;;;9.23;100.00;99789.44;5029491;28;20065;-84
2023/02/19 11:32:25;;;;;;;4.50;1.33;;;;;;;9.34;100.00;99814.44;5029488;28;20060;-85
2023/02/19 11:34:52;;;;;;;4.47;1.65;;;;;;;9.50;100.00;99823.69;5049423;28;20144;-84
2023/02/19 11:37:21;;;;;;;1.92;0.98;;;;;;;9.53;100.00;99826.09;5042603;28;20713;-84
2023/02/19 11:39:49;;;;;;;5.03;1.25;;;;;;;9.46;100.00;99811.47;5050067;28;20045;-85
2023/02/19 11:42:39;;;;;;;3.90;1.30;;;;;;;9.33;100.00;99806.47;5050125;28;20092;-85
2023/02/19 11:45:29;;;;;;;2.88;1.30;;;;;;;9.57;100.00;99850.03;5050153;28;20059;-85
2023/02/19 11:48:28;;;;;;;;;;;;;;;9.51;100.00;99856.09;5048741;28;20045;-84
2023/02/19 11:51:05;;;;;;;4.57;1.55;;;;;;;9.50;100.00;99865.25;4988298;28;20381;-85
2023/02/19 11:53:36;;;;;;;3.30;1.08;;;;;;;9.41;100.00;99855.38;4985338;28;20326;-86
2023/02/19 11:56:15;;;;;;;5.20;1.45;;;;;;;9.29;100.00;99824.06;5019222;28;20053;-86
2023/02/19 11:59:01;;;;;;;2.38;1.10;;;;;;;9.31;100.00;99835.63;5049124;28;20053;-86
